createdAt,value
2017-09-30T00:00:29.035Z,83.20
2017-09-30T00:02:56.613Z,83.20
2017-09-30T00:05:24.088Z,83.20
2017-09-30T00:07:52.354Z,83.30
2017-09-30T00:10:20.584Z,83.40
2017-09-30T00:12:48.067Z,83.30
2017-09-30T00:15:15.540Z,83.60
2017-09-30T00:17:43.011Z,83.70
2017-09-30T00:20:11.316Z,83.90
2017-09-30T00:22:38.787Z,83.80
2017-09-30T00:25:06.276Z,84.00
2017-09-30T00:27:33.752Z,83.80
2017-09-30T00:30:01.244Z,84.00
2017-09-30T00:32:28.720Z,84.60
2017-09-30T00:34:56.267Z,83.90
2017-09-30T00:37:23.783Z,84.00
2017-09-30T00:39:51.264Z,84.10
2017-09-30T00:42:19.520Z,84.30
2017-09-30T00:44:47.001Z,84.30
2017-09-30T00:47:15.276Z,84.30
2017-09-30T00:49:43.535Z,84.10
2017-09-30T00:52:11.784Z,84.30
2017-09-30T00:54:39.276Z,84.20
2017-09-30T00:57:07.508Z,84.10
2017-09-30T00:59:34.997Z,84.10
2017-09-30T01:02:02.472Z,84.10
2017-09-30T01:04:30.740Z,84.30
2017-09-30T01:06:58.984Z,84.30
2017-09-30T01:09:26.476Z,84.10
2017-09-30T01:11:54.736Z,84.50
2017-09-30T01:14:22.219Z,84.50
2017-09-30T01:16:50.481Z,84.50
2017-09-30T01:19:18.728Z,84.80
2017-09-30T01:21:46.229Z,84.70
2017-09-30T01:24:14.472Z,84.50
2017-09-30T01:26:41.957Z,84.30
2017-09-30T01:29:10.220Z,84.30
2017-09-30T01:31:37.695Z,84.30
2017-09-30T01:34:05.960Z,84.30
2017-09-30T01:36:34.955Z,84.40
2017-09-30T01:39:02.456Z,84.40
2017-09-30T01:41:29.936Z,84.80
2017-09-30T01:43:57.415Z,84.80
2017-09-30T01:46:24.940Z,84.80
2017-09-30T01:48:52.440Z,85.70
2017-09-30T01:51:19.956Z,85.80
2017-09-30T01:53:47.452Z,86.50
2017-09-30T01:56:14.970Z,86.30
2017-09-30T01:58:42.491Z,86.50
2017-09-30T02:01:14.742Z,86.50
2017-09-30T02:03:42.231Z,86.40
2017-09-30T02:06:10.488Z,87.00
2017-09-30T02:08:37.985Z,86.90
2017-09-30T02:11:05.527Z,87.30
2017-09-30T02:13:33.784Z,88.50
2017-09-30T02:16:01.272Z,88.40
2017-09-30T02:18:28.784Z,89.20
2017-09-30T02:20:56.292Z,90.00
2017-09-30T02:23:23.772Z,90.30
2017-09-30T02:25:51.270Z,90.40
2017-09-30T02:28:18.764Z,90.80
2017-09-30T02:30:46.261Z,91.00
2017-09-30T02:33:13.752Z,91.20
2017-09-30T02:35:42.027Z,91.40
2017-09-30T02:38:09.509Z,91.10
2017-09-30T02:40:37.751Z,90.70
2017-09-30T02:43:05.247Z,90.70
2017-09-30T02:45:32.728Z,90.70
2017-09-30T02:48:00.212Z,90.70
2017-09-30T02:50:27.693Z,90.60
2017-09-30T02:52:55.224Z,90.80
2017-09-30T02:55:22.720Z,90.90
2017-09-30T02:57:50.968Z,91.10
2017-09-30T03:00:18.464Z,91.00
2017-09-30T03:02:46.704Z,91.30
2017-09-30T03:05:14.231Z,91.30
2017-09-30T03:07:41.716Z,91.40
2017-09-30T03:10:09.245Z,91.40
2017-09-30T03:12:36.728Z,91.40
2017-09-30T03:15:04.258Z,91.30
2017-09-30T03:17:31.756Z,91.20
2017-09-30T03:19:59.244Z,91.30
2017-09-30T03:22:27.512Z,91.50
2017-09-30T03:24:54.992Z,91.40
2017-09-30T03:27:23.263Z,91.50
2017-09-30T03:29:51.512Z,91.30
2017-09-30T03:32:18.988Z,91.20
2017-09-30T03:34:47.243Z,91.30
2017-09-30T03:37:14.716Z,91.20
2017-09-30T03:39:42.204Z,91.20
2017-09-30T03:42:09.685Z,91.20
2017-09-30T03:44:37.188Z,91.30
2017-09-30T03:47:04.672Z,91.30
2017-09-30T03:49:32.152Z,91.30
2017-09-30T03:51:59.641Z,91.00
2017-09-30T03:54:27.117Z,91.10
2017-09-30T03:56:54.608Z,91.20
2017-09-30T03:59:22.077Z,90.80
2017-09-30T04:01:49.594Z,90.90
2017-09-30T04:04:17.852Z,91.20
2017-09-30T04:06:45.332Z,91.20
2017-09-30T04:09:12.815Z,91.40
2017-09-30T04:11:41.056Z,91.40
2017-09-30T04:14:08.547Z,91.30
2017-09-30T04:16:36.788Z,91.50
2017-09-30T04:19:04.294Z,91.50
2017-09-30T04:21:31.776Z,91.60
2017-09-30T04:23:59.265Z,91.60
2017-09-30T04:26:26.764Z,91.50
2017-09-30T04:28:54.243Z,91.70
2017-09-30T04:31:21.744Z,91.70
2017-09-30T04:33:49.235Z,91.80
2017-09-30T04:36:17.478Z,92.00
2017-09-30T04:38:46.499Z,92.00
2017-09-30T04:41:14.760Z,91.70
2017-09-30T04:43:42.252Z,91.70
2017-09-30T04:46:09.736Z,91.60
2017-09-30T04:48:37.211Z,91.60
2017-09-30T04:51:04.704Z,91.90
2017-09-30T04:53:32.948Z,92.00
2017-09-30T04:56:00.444Z,92.00
2017-09-30T04:58:28.690Z,92.10
2017-09-30T05:00:56.940Z,91.90
2017-09-30T05:03:24.428Z,91.90
2017-09-30T05:05:51.912Z,91.90
2017-09-30T05:08:20.172Z,92.10
2017-09-30T05:10:47.681Z,92.00
2017-09-30T05:13:15.992Z,92.20
2017-09-30T05:15:43.478Z,92.10
2017-09-30T05:18:11.714Z,92.10
2017-09-30T05:20:39.212Z,92.10
2017-09-30T05:23:07.479Z,92.20
2017-09-30T05:25:34.968Z,92.20
2017-09-30T05:28:02.456Z,92.20
2017-09-30T05:30:29.932Z,92.30
2017-09-30T05:32:57.418Z,92.20
2017-09-30T05:35:25.663Z,92.30
2017-09-30T05:37:53.155Z,92.30
2017-09-30T05:40:21.390Z,92.30
2017-09-30T05:42:48.863Z,92.20
2017-09-30T05:45:16.352Z,92.40
2017-09-30T05:47:44.591Z,92.00
2017-09-30T05:50:12.099Z,92.00
2017-09-30T05:52:39.569Z,91.90
2017-09-30T05:55:07.041Z,92.00
2017-09-30T05:57:34.526Z,92.00
2017-09-30T06:00:01.991Z,91.90
2017-09-30T06:02:29.484Z,91.90
2017-09-30T06:04:57.715Z,91.90
2017-09-30T06:07:25.208Z,91.90
2017-09-30T06:09:53.439Z,91.80
2017-09-30T06:12:20.911Z,91.80
2017-09-30T06:14:48.408Z,91.80
2017-09-30T06:17:16.639Z,92.00
2017-09-30T06:19:44.127Z,92.00
2017-09-30T06:22:11.595Z,92.20
2017-09-30T06:24:39.861Z,92.40
2017-09-30T06:27:08.126Z,92.40
2017-09-30T06:29:35.607Z,92.30
2017-09-30T06:32:03.869Z,92.50
2017-09-30T06:34:31.339Z,92.40
2017-09-30T06:36:59.608Z,92.50
2017-09-30T06:39:27.083Z,92.50
2017-09-30T06:41:55.329Z,92.50
2017-09-30T06:44:24.328Z,92.80
2017-09-30T06:46:53.322Z,92.80
2017-09-30T06:49:20.829Z,92.80
2017-09-30T06:51:48.306Z,92.80
2017-09-30T06:54:15.824Z,92.80
2017-09-30T06:56:44.080Z,92.90
2017-09-30T06:59:11.556Z,92.90
2017-09-30T07:01:39.827Z,93.10
2017-09-30T07:04:08.067Z,93.00
2017-09-30T07:06:35.548Z,93.00
2017-09-30T07:09:03.044Z,93.20
2017-09-30T07:11:30.537Z,93.40
2017-09-30T07:13:58.036Z,93.10
2017-09-30T07:16:26.284Z,93.20
2017-09-30T07:18:53.763Z,93.20
2017-09-30T07:21:22.019Z,93.40
2017-09-30T07:23:49.503Z,93.30
2017-09-30T07:26:17.761Z,93.20
2017-09-30T07:28:45.252Z,93.20
2017-09-30T07:31:13.496Z,93.40
2017-09-30T07:33:40.984Z,93.30
2017-09-30T07:36:09.238Z,93.40
2017-09-30T07:38:36.740Z,93.30
2017-09-30T07:41:04.223Z,93.40
2017-09-30T07:43:31.704Z,93.50
2017-09-30T07:45:59.971Z,93.40
2017-09-30T07:48:27.446Z,93.40
2017-09-30T07:50:55.011Z,93.60
2017-09-30T07:53:23.263Z,93.50
2017-09-30T07:55:50.742Z,93.50
2017-09-30T07:58:19.020Z,93.50
2017-09-30T08:00:46.492Z,93.50
2017-09-30T08:03:14.756Z,93.30
2017-09-30T08:05:42.227Z,93.30
2017-09-30T08:08:10.471Z,93.60
2017-09-30T08:10:37.976Z,93.60
2017-09-30T08:13:05.459Z,93.60
2017-09-30T08:15:32.952Z,93.70
2017-09-30T08:18:00.420Z,93.40
2017-09-30T08:20:27.918Z,93.30
2017-09-30T09:56:36.149Z,91.60
2017-09-30T09:59:04.404Z,90.20
2017-09-30T10:01:31.984Z,90.10
2017-09-30T10:04:00.232Z,90.70
2017-09-30T10:06:27.723Z,90.60
2017-09-30T10:08:55.987Z,91.20
2017-09-30T10:11:24.235Z,90.90
2017-09-30T10:13:51.703Z,90.80
2017-09-30T10:16:19.183Z,91.40
2017-09-30T10:18:47.424Z,91.20
2017-09-30T10:21:14.930Z,91.20
2017-09-30T10:23:43.182Z,91.80
2017-09-30T10:26:11.433Z,91.50
2017-09-30T10:28:38.919Z,91.50
2017-09-30T10:31:07.151Z,91.90
2017-09-30T10:33:34.680Z,91.90
2017-09-30T10:36:02.939Z,92.00
2017-09-30T10:38:31.188Z,92.00
2017-09-30T10:40:58.712Z,92.00
2017-09-30T10:43:26.196Z,90.60
2017-09-30T10:45:53.697Z,89.70
2017-09-30T10:48:21.949Z,90.20
2017-09-30T10:50:50.212Z,90.60
2017-09-30T10:53:17.696Z,90.60
2017-09-30T10:55:45.932Z,91.20
2017-09-30T10:58:13.415Z,91.20
2017-09-30T11:00:40.892Z,91.10
2017-09-30T11:03:09.871Z,91.30
2017-09-30T11:05:37.364Z,91.30
2017-09-30T11:08:05.603Z,91.10
2017-09-30T11:10:33.100Z,91.10
2017-09-30T11:13:01.343Z,91.70
2017-09-30T11:15:29.615Z,91.70
2017-09-30T11:17:57.120Z,91.70
2017-09-30T11:20:24.595Z,91.10
2017-09-30T11:22:52.088Z,91.40
2017-09-30T11:25:19.559Z,91.30
2017-09-30T11:27:49.036Z,91.20
2017-09-30T11:30:16.512Z,91.20
2017-09-30T11:32:44.010Z,91.20
2017-09-30T11:35:12.254Z,91.50
2017-09-30T11:37:40.505Z,92.30
2017-09-30T11:40:07.991Z,92.30
2017-09-30T11:42:35.465Z,91.70
2017-09-30T11:45:03.720Z,92.40
2017-09-30T11:47:31.197Z,92.30
2017-09-30T11:49:59.455Z,92.30
2017-09-30T11:52:27.699Z,92.10
2017-09-30T11:54:55.203Z,92.10
2017-09-30T11:57:23.451Z,91.90
2017-09-30T11:59:50.977Z,91.90
2017-09-30T12:02:18.472Z,91.60
2017-09-30T12:04:45.951Z,91.10
2017-09-30T12:07:14.212Z,91.30
2017-09-30T12:09:41.699Z,91.00
2017-09-30T12:49:10.037Z,92.30
2017-09-30T12:51:38.284Z,91.50
2017-09-30T12:54:05.794Z,91.40
2017-09-30T12:56:33.268Z,91.20
2017-09-30T12:59:00.755Z,90.90
2017-09-30T13:01:28.243Z,91.30
2017-09-30T13:03:56.503Z,91.60
2017-09-30T13:06:24.004Z,91.60
2017-09-30T13:08:51.472Z,91.30
2017-09-30T13:11:18.964Z,90.80
2017-09-30T13:13:46.444Z,91.40
2017-09-30T13:16:14.695Z,91.30
2017-09-30T13:18:42.180Z,91.30
2017-09-30T13:21:10.423Z,91.90
2017-09-30T13:23:37.949Z,91.90
2017-09-30T13:26:05.429Z,92.00
2017-09-30T13:28:32.919Z,91.80
2017-09-30T13:31:00.405Z,92.20
2017-09-30T13:33:28.642Z,92.50
2017-09-30T13:35:56.143Z,92.80
2017-09-30T13:38:23.637Z,92.40
2017-09-30T13:40:51.128Z,92.50
2017-09-30T13:43:18.604Z,92.20
2017-09-30T13:45:46.868Z,92.40
2017-09-30T13:48:14.347Z,92.40
2017-09-30T13:50:42.589Z,91.30
2017-09-30T13:53:10.842Z,91.70
2017-09-30T13:55:38.727Z,91.70
2017-09-30T13:58:06.219Z,91.80
2017-09-30T14:00:34.467Z,91.80
2017-09-30T14:03:01.965Z,91.80
2017-09-30T14:05:30.203Z,91.00
2017-09-30T14:07:57.679Z,91.00
2017-09-30T14:10:25.941Z,91.40
2017-09-30T14:12:53.423Z,91.40
2017-09-30T14:15:21.691Z,91.10
2017-09-30T14:17:49.983Z,91.50
2017-09-30T14:20:17.496Z,91.50
2017-09-30T14:22:44.979Z,91.10
2017-09-30T14:25:12.447Z,92.10
2017-09-30T14:27:41.080Z,91.30
2017-09-30T14:30:08.563Z,91.30
2017-09-30T14:32:36.050Z,91.60
2017-09-30T14:35:04.279Z,91.40
2017-09-30T14:37:31.795Z,91.40
2017-09-30T14:40:00.032Z,91.30
2017-09-30T14:42:27.544Z,91.60
2017-09-30T14:44:55.044Z,90.90
2017-09-30T14:47:22.524Z,90.40
2017-09-30T14:49:50.031Z,91.00
2017-09-30T14:52:17.499Z,91.00
2017-09-30T14:54:44.996Z,91.00
2017-09-30T14:57:13.287Z,91.30
2017-09-30T14:59:41.531Z,91.10
2017-09-30T15:02:09.024Z,91.00
2017-09-30T15:04:37.275Z,91.50
2017-09-30T15:07:04.768Z,91.50
2017-09-30T15:09:33.003Z,90.50
2017-09-30T15:12:00.496Z,90.50
2017-09-30T15:14:28.741Z,90.80
2017-09-30T15:16:56.211Z,90.80
2017-09-30T15:19:24.463Z,90.30
2017-09-30T15:21:51.959Z,90.30
2017-09-30T15:24:20.250Z,90.50
2017-09-30T15:26:48.504Z,90.40
2017-09-30T15:29:16.748Z,90.90
2017-09-30T15:31:44.257Z,90.70
2017-09-30T15:34:12.497Z,90.40
2017-09-30T15:36:39.991Z,90.40
2017-09-30T15:39:08.234Z,90.20
2017-09-30T15:56:02.746Z,90.50
2017-09-30T15:58:30.986Z,90.30
2017-09-30T16:00:58.456Z,90.30
2017-09-30T16:03:25.980Z,90.40
2017-09-30T16:05:53.462Z,90.30
2017-09-30T16:08:20.989Z,90.50
2017-09-30T16:10:48.473Z,90.10
2017-09-30T16:13:15.966Z,90.20
2017-09-30T16:15:44.223Z,90.30
2017-09-30T16:18:11.699Z,90.30
2017-09-30T16:20:39.203Z,90.20
2017-09-30T16:23:06.670Z,90.10
2017-09-30T16:25:34.191Z,89.90
2017-09-30T16:28:02.429Z,89.10
2017-09-30T16:30:29.906Z,89.00
2017-09-30T16:32:57.395Z,89.90
2017-09-30T16:35:24.867Z,89.70
2017-09-30T16:37:52.360Z,90.10
2017-09-30T16:40:19.856Z,90.00
2017-09-30T16:42:48.118Z,90.00
2017-09-30T16:45:16.372Z,89.20
2017-09-30T16:47:43.862Z,89.10
2017-09-30T16:50:12.127Z,90.40
2017-09-30T16:52:40.380Z,89.80
2017-09-30T16:55:07.872Z,89.80
2017-09-30T16:57:36.183Z,90.10
2017-09-30T17:00:03.677Z,90.10
2017-09-30T17:02:31.156Z,88.70
2017-09-30T17:04:58.627Z,89.70
2017-09-30T17:07:26.875Z,90.30
2017-09-30T17:09:54.347Z,90.30
2017-09-30T17:12:21.831Z,88.90
2017-09-30T17:14:50.068Z,89.70
2017-09-30T17:17:17.568Z,89.70
2017-09-30T17:19:45.042Z,90.30
2017-09-30T17:22:13.299Z,89.90
2017-09-30T17:24:41.559Z,90.20
2017-09-30T17:27:09.807Z,90.50
2017-09-30T17:29:37.305Z,90.40
2017-09-30T17:32:05.541Z,90.20
2017-09-30T17:34:33.042Z,90.20
2017-09-30T17:37:01.332Z,90.00
2017-09-30T17:39:28.809Z,90.00
2017-09-30T17:41:56.291Z,89.60
2017-09-30T17:44:23.772Z,90.00
2017-09-30T17:46:51.258Z,90.10
2017-09-30T17:49:18.743Z,90.00
2017-09-30T17:51:46.247Z,90.10
2017-09-30T17:54:13.723Z,89.80
2017-09-30T17:56:41.961Z,90.30
2017-09-30T17:59:09.457Z,90.30
2017-09-30T18:01:38.531Z,90.30
2017-09-30T18:04:06.012Z,90.30
2017-09-30T18:06:34.250Z,90.40
2017-09-30T18:09:01.744Z,90.40
2017-09-30T18:11:29.987Z,90.00
2017-09-30T18:13:57.465Z,89.90
2017-09-30T18:16:25.755Z,88.40
2017-09-30T18:18:53.999Z,89.40
2017-09-30T18:21:21.593Z,89.40
2017-09-30T18:23:49.844Z,89.20
2017-09-30T18:26:18.859Z,88.60
2017-09-30T18:28:47.143Z,88.00
2017-09-30T18:31:15.400Z,89.50
2017-09-30T18:33:42.903Z,89.50
2017-09-30T18:36:10.375Z,88.80
2017-09-30T18:38:37.859Z,89.90
2017-09-30T18:41:05.335Z,89.80
2017-09-30T18:43:32.836Z,89.40
2017-09-30T18:46:00.319Z,89.70
2017-09-30T18:48:27.807Z,90.10
2017-09-30T18:50:56.095Z,90.40
2017-09-30T18:53:24.351Z,90.80
2017-09-30T18:55:51.840Z,90.60
2017-09-30T18:58:20.088Z,90.80
2017-09-30T19:00:47.685Z,90.80
2017-09-30T19:03:15.169Z,90.50
2017-09-30T19:05:42.642Z,90.90
2017-09-30T19:08:10.187Z,90.60
2017-09-30T19:10:37.672Z,90.70
2017-09-30T19:13:05.164Z,91.10
2017-09-30T19:15:33.492Z,90.90
2017-09-30T19:18:01.012Z,90.90
2017-09-30T19:20:29.308Z,91.10
2017-09-30T19:22:56.800Z,91.10
2017-09-30T19:25:24.287Z,91.40
2017-09-30T19:27:52.531Z,91.70
2017-09-30T19:30:20.036Z,91.40
2017-09-30T19:32:48.295Z,92.00
2017-09-30T19:35:15.899Z,91.90
2017-09-30T19:37:43.390Z,92.10
2017-09-30T19:40:10.895Z,91.80
2017-09-30T19:42:39.151Z,91.50
2017-09-30T19:45:07.408Z,91.40
2017-09-30T19:47:34.908Z,91.40
2017-09-30T19:50:02.400Z,91.70
2017-09-30T19:52:29.928Z,91.50
2017-09-30T19:54:57.404Z,91.80
2017-09-30T19:57:24.931Z,91.60
2017-09-30T19:59:53.182Z,91.60
2017-09-30T20:02:20.664Z,91.60
2017-09-30T20:04:48.923Z,91.10
2017-09-30T20:07:16.403Z,91.00
2017-09-30T20:09:44.671Z,91.00
2017-09-30T20:12:12.924Z,91.20
2017-09-30T20:14:40.409Z,90.80
2017-09-30T20:17:08.680Z,90.50
2017-09-30T20:19:36.951Z,90.20
2017-09-30T20:22:04.432Z,90.20
2017-09-30T20:24:32.706Z,90.00
2017-09-30T20:27:00.991Z,90.10
2017-09-30T20:29:28.464Z,90.10
2017-09-30T20:31:55.938Z,90.30
2017-09-30T20:34:23.438Z,90.10
2017-09-30T20:36:50.916Z,90.20
2017-09-30T20:39:19.175Z,90.30
2017-09-30T20:41:46.644Z,90.20
2017-09-30T20:44:14.903Z,90.50
2017-09-30T20:46:42.420Z,90.50
2017-09-30T20:49:09.899Z,90.40
2017-09-30T20:51:37.433Z,90.20
2017-09-30T20:54:04.915Z,90.60
2017-09-30T20:56:32.407Z,90.40
2017-09-30T20:59:00.675Z,90.70
2017-09-30T21:01:28.186Z,90.60
2017-09-30T21:03:55.673Z,90.60
2017-09-30T21:06:23.196Z,90.80
2017-09-30T21:08:50.691Z,90.90
2017-09-30T21:11:18.186Z,90.70
2017-09-30T21:13:46.476Z,90.90
2017-09-30T21:16:13.955Z,90.90
2017-09-30T21:18:41.459Z,91.00
2017-09-30T21:21:08.931Z,91.00
2017-09-30T21:23:37.184Z,91.00
2017-09-30T21:26:05.507Z,91.00
2017-09-30T21:28:32.983Z,91.00
2017-09-30T21:31:00.536Z,91.00
2017-09-30T21:33:28.023Z,91.10
2017-09-30T21:35:55.527Z,91.10
2017-09-30T21:38:23.797Z,91.10
2017-09-30T21:40:52.043Z,91.20
2017-09-30T21:43:20.500Z,91.20
2017-09-30T21:45:47.983Z,91.10
2017-09-30T21:48:15.495Z,91.10
2017-09-30T21:50:43.028Z,90.80
2017-09-30T21:53:12.076Z,90.70
2017-09-30T21:55:39.556Z,90.60
2017-09-30T21:58:07.039Z,90.80
2017-09-30T22:00:35.303Z,90.90
2017-09-30T22:03:03.580Z,91.00
2017-09-30T22:05:31.846Z,91.00
2017-09-30T22:07:59.331Z,91.00
2017-09-30T22:10:27.589Z,90.90
2017-09-30T22:12:55.068Z,90.90
2017-09-30T22:15:23.331Z,91.10
2017-09-30T22:17:50.828Z,91.10
2017-09-30T22:20:18.320Z,91.40
2017-09-30T22:22:45.824Z,91.30
2017-09-30T22:25:14.072Z,91.10
2017-09-30T22:27:41.547Z,91.10
2017-09-30T22:30:09.819Z,91.40
2017-09-30T22:32:37.299Z,91.10
2017-09-30T22:35:05.559Z,90.90
2017-09-30T22:37:33.835Z,91.10
2017-09-30T22:40:01.400Z,91.10
2017-09-30T22:42:29.655Z,91.20
2017-09-30T22:44:57.140Z,91.10
2017-09-30T22:47:25.399Z,91.00
2017-09-30T22:49:52.880Z,90.90
2017-09-30T22:52:21.130Z,91.00
2017-09-30T22:54:48.621Z,91.00
2017-09-30T22:57:16.104Z,90.80
2017-09-30T22:59:43.595Z,90.90
2017-09-30T23:02:11.077Z,90.70
2017-09-30T23:04:39.342Z,91.40
2017-09-30T23:07:06.819Z,91.30
2017-09-30T23:09:35.083Z,91.20
2017-09-30T23:12:02.574Z,91.20
2017-09-30T23:14:30.057Z,91.50
2017-09-30T23:16:57.552Z,91.50
2017-09-30T23:19:25.023Z,91.60
2017-09-30T23:21:53.278Z,91.20
2017-09-30T23:24:21.531Z,91.10
2017-09-30T23:26:49.011Z,91.10
2017-09-30T23:29:16.520Z,90.90
2017-09-30T23:31:43.995Z,90.40
2017-09-30T23:34:11.492Z,90.40
2017-09-30T23:36:38.972Z,90.80
2017-09-30T23:39:07.211Z,90.70
2017-09-30T23:41:34.699Z,90.70
2017-09-30T23:44:02.944Z,90.30
2017-09-30T23:46:30.511Z,90.20
2017-09-30T23:48:57.989Z,90.20
2017-09-30T23:51:26.261Z,90.00
2017-09-30T23:53:53.731Z,90.00
2017-09-30T23:56:21.975Z,90.20
2017-09-30T23:58:49.467Z,90.20
